createdAt,value
2022-08-30T00:02:35.452Z,15.37
2022-08-30T00:07:57.747Z,15.40
2022-08-30T00:13:21.069Z,15.47
2022-08-30T00:18:43.426Z,15.48
2022-08-30T00:24:06.054Z,15.42
2022-08-30T00:29:28.227Z,15.38
2022-08-30T00:34:50.566Z,15.42
2022-08-30T00:40:16.433Z,15.45
2022-08-30T00:45:42.956Z,15.40
2022-08-30T00:51:09.268Z,15.33
2022-08-30T00:56:32.620Z,15.24
2022-08-30T01:01:54.942Z,15.14
2022-08-30T01:07:17.573Z,15.06
2022-08-30T01:12:40.996Z,15.02
2022-08-30T01:18:07.754Z,14.98
2022-08-30T01:23:32.631Z,15.00
2022-08-30T01:28:57.699Z,14.99
2022-08-30T01:34:20.722Z,14.96
2022-08-30T01:39:44.541Z,14.91
2022-08-30T01:45:07.229Z,14.85
2022-08-30T01:50:29.548Z,14.83
2022-08-30T01:55:51.786Z,14.79
2022-08-30T02:01:15.176Z,14.79
2022-08-30T02:06:38.695Z,14.77
2022-08-30T02:12:00.972Z,14.76
2022-08-30T02:17:25.201Z,14.81
2022-08-30T02:22:49.555Z,14.86
2022-08-30T02:28:12.242Z,14.93
2022-08-30T02:33:36.163Z,15.02
2022-08-30T02:39:04.469Z,15.01
2022-08-30T02:44:28.022Z,14.91
2022-08-30T02:49:50.368Z,14.79
2022-08-30T02:55:13.383Z,14.62
2022-08-30T03:00:37.310Z,14.59
2022-08-30T03:05:59.947Z,14.46
2022-08-30T03:11:23.003Z,14.29
2022-08-30T03:16:46.008Z,14.13
2022-08-30T03:22:09.645Z,14.13
2022-08-30T03:27:32.567Z,14.14
2022-08-30T03:32:54.785Z,14.16
2022-08-30T03:38:17.338Z,14.25
2022-08-30T03:43:40.599Z,14.35
2022-08-30T03:49:04.312Z,14.37
2022-08-30T03:54:27.112Z,14.40
2022-08-30T03:59:49.372Z,14.46
2022-08-30T04:05:11.770Z,14.50
2022-08-30T04:10:36.673Z,14.55
2022-08-30T04:15:59.658Z,14.63
2022-08-30T04:21:23.529Z,14.72
2022-08-30T04:26:45.989Z,14.78
2022-08-30T04:32:08.586Z,14.82
2022-08-30T04:37:31.189Z,14.87
2022-08-30T04:42:55.007Z,14.93
2022-08-30T04:48:18.006Z,14.95
2022-08-30T04:53:41.077Z,14.97
2022-08-30T04:59:06.012Z,15.00
2022-08-30T05:04:28.371Z,15.06
2022-08-30T05:09:51.028Z,15.09
2022-08-30T05:15:14.007Z,15.12
2022-08-30T05:20:36.727Z,15.16
2022-08-30T05:26:00.173Z,15.20
2022-08-30T05:31:40.896Z,15.27
2022-08-30T05:37:03.553Z,15.34
2022-08-30T05:42:26.250Z,15.38
2022-08-30T05:47:49.767Z,15.43
2022-08-30T05:53:12.962Z,15.44
2022-08-30T05:58:35.991Z,15.50
2022-08-30T06:04:03.444Z,15.65
2022-08-30T06:09:25.989Z,15.78
2022-08-30T06:14:48.185Z,15.85
2022-08-30T06:20:10.537Z,15.91
2022-08-30T06:25:41.207Z,16.02
2022-08-30T06:30:59.231Z,16.05
2022-08-30T06:36:30.067Z,16.18
2022-08-30T06:41:54.821Z,16.37
2022-08-30T06:47:17.655Z,16.38
2022-08-30T06:52:39.961Z,16.41
2022-08-30T06:58:02.527Z,16.65
2022-08-30T07:03:25.709Z,16.99
2022-08-30T07:08:55.949Z,17.08
2022-08-30T07:14:17.036Z,17.02
2022-08-30T07:19:39.434Z,17.13
2022-08-30T07:25:05.167Z,17.09
2022-08-30T07:30:28.315Z,17.09
2022-08-30T07:35:50.921Z,17.18
2022-08-30T07:41:14.124Z,17.36
2022-08-30T07:46:37.765Z,17.61
2022-08-30T07:52:00.609Z,17.72
2022-08-30T07:57:25.670Z,17.62
2022-08-30T08:02:53.666Z,17.64
2022-08-30T08:08:16.904Z,17.58
2022-08-30T08:13:52.052Z,17.49
2022-08-30T08:19:05.436Z,17.94
2022-08-30T08:24:28.705Z,18.40
2022-08-30T08:29:52.489Z,18.60
2022-08-30T08:35:15.421Z,18.53
2022-08-30T08:40:41.774Z,18.38
2022-08-30T08:46:34.602Z,18.46
2022-08-30T08:52:16.893Z,18.98
2022-08-30T08:57:41.850Z,19.08
2022-08-30T09:03:09.770Z,19.21
2022-08-30T09:08:36.757Z,18.83
2022-08-30T09:14:00.307Z,19.15
2022-08-30T09:19:36.367Z,19.51
2022-08-30T09:25:04.692Z,19.78
2022-08-30T09:30:33.116Z,19.21
2022-08-30T09:36:05.779Z,19.21
2022-08-30T09:41:52.670Z,19.66
2022-08-30T09:47:26.291Z,20.35
2022-08-30T09:53:12.417Z,20.54
2022-08-30T09:58:49.756Z,21.25
2022-08-30T10:04:32.108Z,20.74
2022-08-30T10:10:11.895Z,22.84
2022-08-30T10:15:57.158Z,22.39
2022-08-30T10:21:46.177Z,21.71
2022-08-30T10:27:23.428Z,22.57
2022-08-30T10:33:08.796Z,23.22
2022-08-30T10:38:41.756Z,23.12
2022-08-30T10:44:29.003Z,22.87
2022-08-30T10:55:44.865Z,23.38
2022-08-30T11:01:17.982Z,23.34
2022-08-30T11:07:15.782Z,23.81
2022-08-30T11:12:46.337Z,23.27
2022-08-30T11:18:24.572Z,22.12
2022-08-30T11:24:11.320Z,22.89
2022-08-30T11:29:52.827Z,23.79
2022-08-30T11:35:18.106Z,23.54
2022-08-30T11:40:51.459Z,23.12
2022-08-30T11:52:30.403Z,22.49
2022-08-30T11:58:06.757Z,20.84
2022-08-30T12:03:39.663Z,22.63
2022-08-30T12:09:05.448Z,22.15
2022-08-30T12:14:54.979Z,23.50
2022-08-30T12:20:22.761Z,22.12
2022-08-30T12:25:47.695Z,21.33
2022-08-30T12:31:24.082Z,21.97
2022-08-30T12:37:09.359Z,23.23
2022-08-30T12:42:41.995Z,24.15
2022-08-30T12:48:08.857Z,24.55
2022-08-30T12:53:43.465Z,24.11
2022-08-30T12:59:16.056Z,24.45
2022-08-30T13:04:43.608Z,23.66
2022-08-30T13:10:19.671Z,21.92
2022-08-30T13:15:46.170Z,21.31
2022-08-30T13:21:29.144Z,21.62
2022-08-30T13:26:52.949Z,23.58
2022-08-30T13:32:17.032Z,25.62
2022-08-30T13:37:49.583Z,25.58
2022-08-30T13:43:08.099Z,25.71
2022-08-30T13:48:33.131Z,25.91
2022-08-30T13:53:56.026Z,23.48
2022-08-30T13:59:20.222Z,24.76
2022-08-30T14:04:44.386Z,24.92
2022-08-30T14:15:32.506Z,23.40
2022-08-30T14:20:54.921Z,23.68
2022-08-30T14:26:20.984Z,24.86
2022-08-30T14:31:44.317Z,24.14
2022-08-30T14:37:07.414Z,22.76
2022-08-30T14:42:31.622Z,23.18
2022-08-30T14:47:54.360Z,24.33
2022-08-30T14:53:18.065Z,22.66
2022-08-30T14:58:41.734Z,22.14
2022-08-30T15:04:07.238Z,21.73
2022-08-30T15:09:33.081Z,21.52
2022-08-30T15:14:56.353Z,21.67
2022-08-30T15:20:22.226Z,21.16
2022-08-30T15:25:44.905Z,21.32
2022-08-30T15:31:09.330Z,20.72
2022-08-30T15:36:32.114Z,20.60
2022-08-30T15:42:00.315Z,20.68
2022-08-30T15:47:19.581Z,20.55
2022-08-30T15:52:43.045Z,20.39
2022-08-30T15:58:05.338Z,20.24
2022-08-30T16:03:27.591Z,20.20
2022-08-30T16:08:51.118Z,20.18
2022-08-30T16:14:15.662Z,19.96
2022-08-30T16:19:38.096Z,19.95
2022-08-30T16:25:00.984Z,19.85
2022-08-30T16:30:25.603Z,19.62
2022-08-30T16:35:48.784Z,19.35
2022-08-30T16:41:12.051Z,19.15
2022-08-30T16:46:37.301Z,19.02
2022-08-30T16:51:59.561Z,18.84
2022-08-30T16:57:22.422Z,18.76
2022-08-30T17:02:53.507Z,18.67
2022-08-30T17:08:10.981Z,18.52
2022-08-30T17:13:35.044Z,18.49
2022-08-30T17:19:02.427Z,18.24
2022-08-30T17:24:32.010Z,18.08
2022-08-30T17:29:57.626Z,17.96
2022-08-30T17:35:29.378Z,17.72
2022-08-30T17:40:59.493Z,17.57
2022-08-30T17:46:46.124Z,17.49
2022-08-30T17:52:21.842Z,17.35
2022-08-30T17:57:51.391Z,17.41
2022-08-30T18:03:22.593Z,17.37
2022-08-30T18:09:12.556Z,17.52
2022-08-30T18:14:39.356Z,17.10
2022-08-30T18:20:02.470Z,17.10
2022-08-30T18:25:27.331Z,16.84
2022-08-30T18:30:49.747Z,16.56
2022-08-30T18:36:12.673Z,16.41
2022-08-30T18:41:39.184Z,16.25
2022-08-30T18:47:01.352Z,16.10
2022-08-30T18:52:27.990Z,15.92
2022-08-30T18:57:50.604Z,15.72
2022-08-30T19:03:14.869Z,15.61
2022-08-30T19:08:37.398Z,15.42
2022-08-30T19:14:00.599Z,15.13
2022-08-30T19:19:23.600Z,14.79
2022-08-30T19:24:46.242Z,14.46
2022-08-30T19:30:09.374Z,14.17
2022-08-30T19:35:32.215Z,14.01
2022-08-30T19:40:54.932Z,13.94
2022-08-30T19:46:20.726Z,13.95
2022-08-30T19:51:46.862Z,13.99
2022-08-30T19:57:09.671Z,13.94
2022-08-30T20:02:32.430Z,13.86
2022-08-30T20:07:55.364Z,13.90
2022-08-30T20:13:23.590Z,13.88
2022-08-30T20:18:45.346Z,13.88
2022-08-30T20:24:09.699Z,13.95
2022-08-30T20:29:32.610Z,13.89
2022-08-30T20:34:56.277Z,13.88
2022-08-30T20:40:21.030Z,13.93
2022-08-30T20:45:44.724Z,13.94
2022-08-30T20:51:09.697Z,14.05
2022-08-30T20:56:34.724Z,14.02
2022-08-30T21:01:56.965Z,13.98
2022-08-30T21:07:19.772Z,14.07
2022-08-30T21:12:43.210Z,14.06
2022-08-30T21:18:06.322Z,14.01
2022-08-30T21:23:29.193Z,13.93
2022-08-30T21:28:54.211Z,13.85
2022-08-30T21:34:17.731Z,13.80
2022-08-30T21:39:42.747Z,13.74
2022-08-30T21:45:05.038Z,13.72
2022-08-30T21:50:27.853Z,13.69
2022-08-30T21:55:50.129Z,13.65
2022-08-30T22:01:20.254Z,13.56
2022-08-30T22:06:45.993Z,13.52
2022-08-30T22:12:10.150Z,13.45
2022-08-30T22:17:33.485Z,13.30
2022-08-30T22:22:55.668Z,13.14
2022-08-30T22:28:17.840Z,13.05
2022-08-30T22:33:40.964Z,12.84
2022-08-30T22:39:09.262Z,12.71
2022-08-30T22:44:32.264Z,12.66
2022-08-30T22:49:54.452Z,12.54
2022-08-30T22:55:16.914Z,12.51
2022-08-30T23:00:39.605Z,12.43
2022-08-30T23:06:01.845Z,12.32
2022-08-30T23:11:24.143Z,12.02
2022-08-30T23:16:47.352Z,11.90
2022-08-30T23:22:10.014Z,11.92
2022-08-30T23:27:50.292Z,11.81
2022-08-30T23:33:30.420Z,11.77
2022-08-30T23:39:11.463Z,11.68
2022-08-30T23:44:51.512Z,11.61
2022-08-30T23:50:32.210Z,11.46
2022-08-30T23:56:14.796Z,11.54
